sensor_id;sensor_type;location;lat;lon;timestamp;temperature;humidity
26224;DHT22;14820;48.682;8.890;2024-03-06T00:00:01;4.10;99.90
26224;DHT22;14820;48.682;8.890;2024-03-06T00:02:26;4.20;99.90
26224;DHT22;14820;48.682;8.890;2024-03-06T00:04:52;4.10;99.90
26224;DHT22;14820;48.682;8.890;2024-03-06T00:07:19;4.10;99.90
26224;DHT22;14820;48.682;8.890;2024-03-06T00:09:45;4.10;99.90
26224;DHT22;14820;48.682;8.890;2024-03-06T00:12:11;4.20;99.90
26224;DHT22;14820;48.682;8.890;2024-03-06T00:14:36;4.20;99.90
26224;DHT22;14820;48.682;8.890;2024-03-06T00:17:02;4.20;99.90
26224;DHT22;14820;48.682;8.890;2024-03-06T00:19:32;4.20;99.90
26224;DHT22;14820;48.682;8.890;2024-03-06T00:21:59;4.20;99.90
26224;DHT22;14820;48.682;8.890;2024-03-06T00:24:25;4.20;99.90
26224;DHT22;14820;48.682;8.890;2024-03-06T00:26:51;4.30;99.90
26224;DHT22;14820;48.682;8.890;2024-03-06T00:29:16;4.30;99.90
26224;DHT22;14820;48.682;8.890;2024-03-06T00:31:43;4.30;99.90
26224;DHT22;14820;48.682;8.890;2024-03-06T00:34:10;4.30;99.90
26224;DHT22;14820;48.682;8.890;2024-03-06T00:36:37;4.30;99.90
26224;DHT22;14820;48.682;8.890;2024-03-06T00:39:03;4.30;99.90
26224;DHT22;14820;48.682;8.890;2024-03-06T00:41:30;4.30;99.90
26224;DHT22;14820;48.682;8.890;2024-03-06T00:43:56;4.40;99.90
26224;DHT22;14820;48.682;8.890;2024-03-06T00:46:21;4.30;99.90
26224;DHT22;14820;48.682;8.890;2024-03-06T00:48:47;4.30;99.90
26224;DHT22;14820;48.682;8.890;2024-03-06T00:51:13;4.30;99.90
26224;DHT22;14820;48.682;8.890;2024-03-06T00:53:38;4.30;99.90
26224;DHT22;14820;48.682;8.890;2024-03-06T00:56:04;4.30;99.90
26224;DHT22;14820;48.682;8.890;2024-03-06T00:58:30;4.20;99.90
26224;DHT22;14820;48.682;8.890;2024-03-06T01:00:56;4.20;99.90
26224;DHT22;14820;48.682;8.890;2024-03-06T01:03:23;4.20;99.90
26224;DHT22;14820;48.682;8.890;2024-03-06T01:05:50;4.20;99.90
26224;DHT22;14820;48.682;8.890;2024-03-06T01:08:17;4.10;99.90
26224;DHT22;14820;48.682;8.890;2024-03-06T01:10:43;4.10;99.90
26224;DHT22;14820;48.682;8.890;2024-03-06T01:13:09;4.10;99.90
26224;DHT22;14820;48.682;8.890;2024-03-06T01:15:37;4.10;99.90
26224;DHT22;14820;48.682;8.890;2024-03-06T01:18:02;4.10;99.90
26224;DHT22;14820;48.682;8.890;2024-03-06T01:20:29;4.10;99.90
26224;DHT22;14820;48.682;8.890;2024-03-06T01:22:54;4.10;99.90
26224;DHT22;14820;48.682;8.890;2024-03-06T01:25:20;4.10;99.90
26224;DHT22;14820;48.682;8.890;2024-03-06T01:27:48;4.10;99.90
26224;DHT22;14820;48.682;8.890;2024-03-06T01:30:14;4.10;99.90
26224;DHT22;14820;48.682;8.890;2024-03-06T01:32:40;4.10;99.90
26224;DHT22;14820;48.682;8.890;2024-03-06T01:35:06;4.10;99.90
26224;DHT22;14820;48.682;8.890;2024-03-06T01:37:32;4.10;99.90
26224;DHT22;14820;48.682;8.890;2024-03-06T01:39:58;4.00;99.90
26224;DHT22;14820;48.682;8.890;2024-03-06T01:42:23;4.00;99.90
26224;DHT22;14820;48.682;8.890;2024-03-06T01:44:49;3.90;99.90
26224;DHT22;14820;48.682;8.890;2024-03-06T01:47:15;3.90;99.90
26224;DHT22;14820;48.682;8.890;2024-03-06T01:49:41;4.00;99.90
26224;DHT22;14820;48.682;8.890;2024-03-06T01:52:09;4.00;99.90
26224;DHT22;14820;48.682;8.890;2024-03-06T01:54:35;3.90;99.90
26224;DHT22;14820;48.682;8.890;2024-03-06T01:57:01;3.90;99.90
26224;DHT22;14820;48.682;8.890;2024-03-06T01:59:28;3.90;99.90
26224;DHT22;14820;48.682;8.890;2024-03-06T02:01:54;4.00;99.90
26224;DHT22;14820;48.682;8.890;2024-03-06T02:04:20;4.00;99.90
26224;DHT22;14820;48.682;8.890;2024-03-06T02:06:46;4.00;99.90
26224;DHT22;14820;48.682;8.890;2024-03-06T02:09:12;4.00;99.90
26224;DHT22;14820;48.682;8.890;2024-03-06T02:11:40;4.00;99.90
26224;DHT22;14820;48.682;8.890;2024-03-06T02:14:07;4.00;99.90
26224;DHT22;14820;48.682;8.890;2024-03-06T02:16:38;4.00;99.90
26224;DHT22;14820;48.682;8.890;2024-03-06T02:19:07;4.00;99.90
26224;DHT22;14820;48.682;8.890;2024-03-06T02:21:33;4.00;99.90
26224;DHT22;14820;48.682;8.890;2024-03-06T02:23:59;4.00;99.90
26224;DHT22;14820;48.682;8.890;2024-03-06T02:26:25;4.00;99.90
26224;DHT22;14820;48.682;8.890;2024-03-06T02:28:52;4.00;99.90
26224;DHT22;14820;48.682;8.890;2024-03-06T02:31:19;4.00;99.90
26224;DHT22;14820;48.682;8.890;2024-03-06T02:33:47;4.00;99.90
26224;DHT22;14820;48.682;8.890;2024-03-06T02:36:17;4.00;99.90
26224;DHT22;14820;48.682;8.890;2024-03-06T02:38:43;4.00;99.90
26224;DHT22;14820;48.682;8.890;2024-03-06T02:41:09;4.00;99.90
26224;DHT22;14820;48.682;8.890;2024-03-06T02:43:36;3.90;99.90
26224;DHT22;14820;48.682;8.890;2024-03-06T02:46:02;3.90;99.90
26224;DHT22;14820;48.682;8.890;2024-03-06T02:48:28;4.00;99.90
26224;DHT22;14820;48.682;8.890;2024-03-06T02:50:55;4.00;99.90
26224;DHT22;14820;48.682;8.890;2024-03-06T02:53:20;4.00;99.90
26224;DHT22;14820;48.682;8.890;2024-03-06T02:55:47;4.00;99.90
26224;DHT22;14820;48.682;8.890;2024-03-06T02:58:12;4.00;99.90
26224;DHT22;14820;48.682;8.890;2024-03-06T03:00:42;4.00;99.90
26224;DHT22;14820;48.682;8.890;2024-03-06T03:03:08;4.00;99.90
26224;DHT22;14820;48.682;8.890;2024-03-06T03:05:33;4.00;99.90
26224;DHT22;14820;48.682;8.890;2024-03-06T03:07:59;4.00;99.90
26224;DHT22;14820;48.682;8.890;2024-03-06T03:10:25;4.00;99.90
26224;DHT22;14820;48.682;8.890;2024-03-06T03:12:51;4.00;99.90
26224;DHT22;14820;48.682;8.890;2024-03-06T03:15:17;4.00;99.90
26224;DHT22;14820;48.682;8.890;2024-03-06T03:17:43;4.00;99.90
26224;DHT22;14820;48.682;8.890;2024-03-06T03:20:09;4.00;99.90
26224;DHT22;14820;48.682;8.890;2024-03-06T03:22:39;4.00;99.90
26224;DHT22;14820;48.682;8.890;2024-03-06T03:25:12;4.00;99.90
26224;DHT22;14820;48.682;8.890;2024-03-06T03:27:39;4.00;99.90
26224;DHT22;14820;48.682;8.890;2024-03-06T03:30:12;4.00;99.90
26224;DHT22;14820;48.682;8.890;2024-03-06T03:32:38;4.00;99.90
26224;DHT22;14820;48.682;8.890;2024-03-06T03:35:08;4.00;99.90
26224;DHT22;14820;48.682;8.890;2024-03-06T03:37:34;4.00;99.90
26224;DHT22;14820;48.682;8.890;2024-03-06T03:40:00;4.00;99.90
26224;DHT22;14820;48.682;8.890;2024-03-06T03:42:25;4.10;99.90
26224;DHT22;14820;48.682;8.890;2024-03-06T03:44:51;4.00;99.90
26224;DHT22;14820;48.682;8.890;2024-03-06T03:47:17;4.00;99.90
26224;DHT22;14820;48.682;8.890;2024-03-06T03:49:43;4.00;99.90
26224;DHT22;14820;48.682;8.890;2024-03-06T03:52:08;4.00;99.90
26224;DHT22;14820;48.682;8.890;2024-03-06T03:54:34;4.00;99.90
26224;DHT22;14820;48.682;8.890;2024-03-06T03:57:00;4.00;99.90
26224;DHT22;14820;48.682;8.890;2024-03-06T03:59:26;4.00;99.90
26224;DHT22;14820;48.682;8.890;2024-03-06T04:01:52;4.00;99.90
26224;DHT22;14820;48.682;8.890;2024-03-06T04:04:17;4.00;99.90
26224;DHT22;14820;48.682;8.890;2024-03-06T04:06:43;4.10;99.90
26224;DHT22;14820;48.682;8.890;2024-03-06T04:09:09;4.10;99.90
26224;DHT22;14820;48.682;8.890;2024-03-06T04:11:40;4.10;99.90
26224;DHT22;14820;48.682;8.890;2024-03-06T04:14:06;4.10;99.90
26224;DHT22;14820;48.682;8.890;2024-03-06T04:16:35;4.10;99.90
26224;DHT22;14820;48.682;8.890;2024-03-06T04:19:01;4.10;99.90
26224;DHT22;14820;48.682;8.890;2024-03-06T04:21:27;4.20;99.90
26224;DHT22;14820;48.682;8.890;2024-03-06T04:23:52;4.20;99.90
26224;DHT22;14820;48.682;8.890;2024-03-06T04:26:18;4.20;99.90
26224;DHT22;14820;48.682;8.890;2024-03-06T04:28:44;4.20;99.90
26224;DHT22;14820;48.682;8.890;2024-03-06T04:31:10;4.30;99.90
26224;DHT22;14820;48.682;8.890;2024-03-06T04:33:36;4.30;99.90
26224;DHT22;14820;48.682;8.890;2024-03-06T04:36:03;4.30;99.90
26224;DHT22;14820;48.682;8.890;2024-03-06T04:38:31;4.30;99.90
26224;DHT22;14820;48.682;8.890;2024-03-06T04:40:57;4.30;99.90
26224;DHT22;14820;48.682;8.890;2024-03-06T04:43:23;4.30;99.90
26224;DHT22;14820;48.682;8.890;2024-03-06T04:45:48;4.30;99.90
26224;DHT22;14820;48.682;8.890;2024-03-06T04:48:14;4.20;99.90
26224;DHT22;14820;48.682;8.890;2024-03-06T04:50:40;4.20;99.90
26224;DHT22;14820;48.682;8.890;2024-03-06T04:53:06;4.20;99.90
26224;DHT22;14820;48.682;8.890;2024-03-06T04:55:32;4.20;99.90
26224;DHT22;14820;48.682;8.890;2024-03-06T04:57:58;4.20;99.90
26224;DHT22;14820;48.682;8.890;2024-03-06T05:00:23;4.20;99.90
26224;DHT22;14820;48.682;8.890;2024-03-06T05:02:49;4.20;99.90
26224;DHT22;14820;48.682;8.890;2024-03-06T05:05:15;4.20;99.90
26224;DHT22;14820;48.682;8.890;2024-03-06T05:07:40;4.20;99.90
26224;DHT22;14820;48.682;8.890;2024-03-06T05:10:07;4.20;99.90
26224;DHT22;14820;48.682;8.890;2024-03-06T05:12:35;4.20;99.90
26224;DHT22;14820;48.682;8.890;2024-03-06T05:15:01;4.30;99.90
26224;DHT22;14820;48.682;8.890;2024-03-06T05:17:26;4.30;99.90
26224;DHT22;14820;48.682;8.890;2024-03-06T05:19:53;4.30;99.90
26224;DHT22;14820;48.682;8.890;2024-03-06T05:22:20;4.30;99.90
26224;DHT22;14820;48.682;8.890;2024-03-06T05:24:46;4.30;99.90
26224;DHT22;14820;48.682;8.890;2024-03-06T05:27:12;4.30;99.90
26224;DHT22;14820;48.682;8.890;2024-03-06T05:29:42;4.30;99.90
26224;DHT22;14820;48.682;8.890;2024-03-06T05:32:08;4.20;99.90
26224;DHT22;14820;48.682;8.890;2024-03-06T05:34:34;4.20;99.90
26224;DHT22;14820;48.682;8.890;2024-03-06T05:37:00;4.20;99.90
26224;DHT22;14820;48.682;8.890;2024-03-06T05:39:30;4.20;99.90
26224;DHT22;14820;48.682;8.890;2024-03-06T05:42:00;4.20;99.90
26224;DHT22;14820;48.682;8.890;2024-03-06T05:44:28;4.30;99.90
26224;DHT22;14820;48.682;8.890;2024-03-06T05:46:54;4.20;99.90
26224;DHT22;14820;48.682;8.890;2024-03-06T05:49:19;4.30;99.90
26224;DHT22;14820;48.682;8.890;2024-03-06T05:51:45;4.30;99.90
26224;DHT22;14820;48.682;8.890;2024-03-06T05:54:11;4.30;99.90
26224;DHT22;14820;48.682;8.890;2024-03-06T05:56:36;4.30;99.90
26224;DHT22;14820;48.682;8.890;2024-03-06T05:59:04;4.40;99.90
26224;DHT22;14820;48.682;8.890;2024-03-06T06:01:33;4.40;99.90
26224;DHT22;14820;48.682;8.890;2024-03-06T06:03:59;4.40;99.90
26224;DHT22;14820;48.682;8.890;2024-03-06T06:06:26;4.40;99.90
26224;DHT22;14820;48.682;8.890;2024-03-06T06:08:51;4.40;99.90
26224;DHT22;14820;48.682;8.890;2024-03-06T06:11:17;4.40;99.90
26224;DHT22;14820;48.682;8.890;2024-03-06T06:13:43;4.40;99.90
26224;DHT22;14820;48.682;8.890;2024-03-06T06:16:08;4.50;99.90
26224;DHT22;14820;48.682;8.890;2024-03-06T06:18:34;4.50;99.90
26224;DHT22;14820;48.682;8.890;2024-03-06T06:21:00;4.50;99.90
26224;DHT22;14820;48.682;8.890;2024-03-06T06:23:26;4.50;99.90
26224;DHT22;14820;48.682;8.890;2024-03-06T06:25:51;4.50;99.90
26224;DHT22;14820;48.682;8.890;2024-03-06T06:28:17;4.50;99.90
26224;DHT22;14820;48.682;8.890;2024-03-06T06:30:43;4.60;99.90
26224;DHT22;14820;48.682;8.890;2024-03-06T06:33:09;4.50;99.90
26224;DHT22;14820;48.682;8.890;2024-03-06T06:35:35;4.60;99.90
26224;DHT22;14820;48.682;8.890;2024-03-06T06:38:01;4.60;99.90
26224;DHT22;14820;48.682;8.890;2024-03-06T06:40:27;4.60;99.90
26224;DHT22;14820;48.682;8.890;2024-03-06T06:42:53;4.60;99.90
26224;DHT22;14820;48.682;8.890;2024-03-06T06:45:20;4.60;99.90
26224;DHT22;14820;48.682;8.890;2024-03-06T06:47:48;4.70;99.90
26224;DHT22;14820;48.682;8.890;2024-03-06T06:50:14;4.70;99.90
26224;DHT22;14820;48.682;8.890;2024-03-06T06:52:40;4.70;99.90
26224;DHT22;14820;48.682;8.890;2024-03-06T06:55:06;4.70;99.90
26224;DHT22;14820;48.682;8.890;2024-03-06T06:57:32;4.70;99.90
26224;DHT22;14820;48.682;8.890;2024-03-06T07:00:01;4.70;99.90
26224;DHT22;14820;48.682;8.890;2024-03-06T07:02:39;4.80;99.90
26224;DHT22;14820;48.682;8.890;2024-03-06T07:05:05;4.70;99.90
26224;DHT22;14820;48.682;8.890;2024-03-06T07:07:31;4.80;99.90
26224;DHT22;14820;48.682;8.890;2024-03-06T07:09:57;4.80;99.90
26224;DHT22;14820;48.682;8.890;2024-03-06T07:12:23;4.80;99.90
26224;DHT22;14820;48.682;8.890;2024-03-06T07:14:48;4.80;99.90
26224;DHT22;14820;48.682;8.890;2024-03-06T07:17:14;4.80;99.90
26224;DHT22;14820;48.682;8.890;2024-03-06T07:19:40;4.80;99.90
26224;DHT22;14820;48.682;8.890;2024-03-06T07:22:06;4.80;99.90
26224;DHT22;14820;48.682;8.890;2024-03-06T07:24:31;4.90;99.90
26224;DHT22;14820;48.682;8.890;2024-03-06T07:26:57;4.90;99.90
26224;DHT22;14820;48.682;8.890;2024-03-06T07:29:22;4.90;99.90
26224;DHT22;14820;48.682;8.890;2024-03-06T07:31:48;5.00;99.90
26224;DHT22;14820;48.682;8.890;2024-03-06T07:34:14;5.00;99.90
26224;DHT22;14820;48.682;8.890;2024-03-06T07:36:43;5.00;99.90
26224;DHT22;14820;48.682;8.890;2024-03-06T07:39:09;5.00;99.90
26224;DHT22;14820;48.682;8.890;2024-03-06T07:41:34;5.00;99.90
26224;DHT22;14820;48.682;8.890;2024-03-06T07:44:00;5.10;99.90
26224;DHT22;14820;48.682;8.890;2024-03-06T07:46:26;5.10;99.90
26224;DHT22;14820;48.682;8.890;2024-03-06T07:48:52;5.10;99.90
26224;DHT22;14820;48.682;8.890;2024-03-06T07:51:18;5.10;99.90
26224;DHT22;14820;48.682;8.890;2024-03-06T07:53:44;5.20;99.90
26224;DHT22;14820;48.682;8.890;2024-03-06T07:56:12;5.20;99.90
26224;DHT22;14820;48.682;8.890;2024-03-06T07:58:38;5.20;99.90
26224;DHT22;14820;48.682;8.890;2024-03-06T08:01:04;5.20;99.90
26224;DHT22;14820;48.682;8.890;2024-03-06T08:03:30;5.20;99.90
26224;DHT22;14820;48.682;8.890;2024-03-06T08:05:55;5.20;99.90
26224;DHT22;14820;48.682;8.890;2024-03-06T08:08:21;5.20;99.90
26224;DHT22;14820;48.682;8.890;2024-03-06T08:10:47;5.30;99.90
26224;DHT22;14820;48.682;8.890;2024-03-06T08:13:13;5.30;99.90
26224;DHT22;14820;48.682;8.890;2024-03-06T08:15:39;5.30;99.90
26224;DHT22;14820;48.682;8.890;2024-03-06T08:18:05;5.30;99.90
26224;DHT22;14820;48.682;8.890;2024-03-06T08:20:31;5.30;99.90
26224;DHT22;14820;48.682;8.890;2024-03-06T08:22:58;5.30;99.90
26224;DHT22;14820;48.682;8.890;2024-03-06T08:25:24;5.30;99.90
26224;DHT22;14820;48.682;8.890;2024-03-06T08:27:50;5.30;99.90
26224;DHT22;14820;48.682;8.890;2024-03-06T08:30:15;5.30;99.90
26224;DHT22;14820;48.682;8.890;2024-03-06T08:32:41;5.40;99.90
26224;DHT22;14820;48.682;8.890;2024-03-06T08:35:10;5.40;99.90
26224;DHT22;14820;48.682;8.890;2024-03-06T08:37:40;5.40;99.90
26224;DHT22;14820;48.682;8.890;2024-03-06T08:40:07;5.40;99.90
26224;DHT22;14820;48.682;8.890;2024-03-06T08:42:33;5.40;99.90
26224;DHT22;14820;48.682;8.890;2024-03-06T08:44:59;5.40;99.90
26224;DHT22;14820;48.682;8.890;2024-03-06T08:47:24;5.40;99.90
26224;DHT22;14820;48.682;8.890;2024-03-06T08:49:50;5.40;99.90
26224;DHT22;14820;48.682;8.890;2024-03-06T08:52:16;5.50;99.90
26224;DHT22;14820;48.682;8.890;2024-03-06T08:54:42;5.50;99.90
26224;DHT22;14820;48.682;8.890;2024-03-06T08:57:08;5.50;99.90
26224;DHT22;14820;48.682;8.890;2024-03-06T08:59:34;5.60;99.90
26224;DHT22;14820;48.682;8.890;2024-03-06T09:02:18;5.60;99.90
26224;DHT22;14820;48.682;8.890;2024-03-06T09:04:45;5.60;99.90
26224;DHT22;14820;48.682;8.890;2024-03-06T09:07:12;5.70;99.90
26224;DHT22;14820;48.682;8.890;2024-03-06T09:09:38;5.70;99.90
26224;DHT22;14820;48.682;8.890;2024-03-06T09:12:08;5.80;99.90
26224;DHT22;14820;48.682;8.890;2024-03-06T09:14:38;5.80;99.90
26224;DHT22;14820;48.682;8.890;2024-03-06T09:17:05;5.80;99.90
26224;DHT22;14820;48.682;8.890;2024-03-06T09:19:31;5.80;99.90
26224;DHT22;14820;48.682;8.890;2024-03-06T09:21:58;5.90;99.90
26224;DHT22;14820;48.682;8.890;2024-03-06T09:24:24;5.90;99.90
26224;DHT22;14820;48.682;8.890;2024-03-06T09:26:53;5.90;99.90
26224;DHT22;14820;48.682;8.890;2024-03-06T09:29:19;5.90;99.90
26224;DHT22;14820;48.682;8.890;2024-03-06T09:31:46;5.80;99.90
26224;DHT22;14820;48.682;8.890;2024-03-06T09:34:13;5.90;99.90
26224;DHT22;14820;48.682;8.890;2024-03-06T09:36:40;5.90;99.90
26224;DHT22;14820;48.682;8.890;2024-03-06T09:39:10;5.90;99.90
26224;DHT22;14820;48.682;8.890;2024-03-06T09:41:37;5.90;99.90
26224;DHT22;14820;48.682;8.890;2024-03-06T09:44:06;6.00;99.90
26224;DHT22;14820;48.682;8.890;2024-03-06T09:46:33;5.90;99.90
26224;DHT22;14820;48.682;8.890;2024-03-06T09:49:01;5.90;99.90
26224;DHT22;14820;48.682;8.890;2024-03-06T09:51:26;6.00;99.90
26224;DHT22;14820;48.682;8.890;2024-03-06T09:53:53;5.90;99.90
26224;DHT22;14820;48.682;8.890;2024-03-06T09:56:19;5.90;99.90
26224;DHT22;14820;48.682;8.890;2024-03-06T09:58:48;5.90;99.90
26224;DHT22;14820;48.682;8.890;2024-03-06T10:01:14;5.90;99.90
26224;DHT22;14820;48.682;8.890;2024-03-06T10:03:40;5.90;99.90
26224;DHT22;14820;48.682;8.890;2024-03-06T10:06:09;5.90;99.90
26224;DHT22;14820;48.682;8.890;2024-03-06T10:08:35;6.00;99.90
26224;DHT22;14820;48.682;8.890;2024-03-06T10:11:03;6.00;99.90
26224;DHT22;14820;48.682;8.890;2024-03-06T10:13:29;6.00;99.90
26224;DHT22;14820;48.682;8.890;2024-03-06T10:16:01;6.00;99.90
26224;DHT22;14820;48.682;8.890;2024-03-06T10:18:29;6.00;99.90
26224;DHT22;14820;48.682;8.890;2024-03-06T10:20:55;6.00;99.90
26224;DHT22;14820;48.682;8.890;2024-03-06T10:23:21;6.00;99.90
26224;DHT22;14820;48.682;8.890;2024-03-06T10:25:50;6.00;99.90
26224;DHT22;14820;48.682;8.890;2024-03-06T10:28:18;6.00;99.90
26224;DHT22;14820;48.682;8.890;2024-03-06T10:30:44;5.90;99.90
26224;DHT22;14820;48.682;8.890;2024-03-06T10:33:16;5.90;99.90
26224;DHT22;14820;48.682;8.890;2024-03-06T10:35:43;5.80;99.90
26224;DHT22;14820;48.682;8.890;2024-03-06T10:38:10;5.90;99.90
26224;DHT22;14820;48.682;8.890;2024-03-06T10:40:40;5.90;99.90
26224;DHT22;14820;48.682;8.890;2024-03-06T10:43:07;5.90;99.90
26224;DHT22;14820;48.682;8.890;2024-03-06T10:48:07;5.90;99.90
26224;DHT22;14820;48.682;8.890;2024-03-06T10:50:33;6.00;99.90
26224;DHT22;14820;48.682;8.890;2024-03-06T10:53:02;5.90;99.90
26224;DHT22;14820;48.682;8.890;2024-03-06T10:55:30;6.00;99.90
26224;DHT22;14820;48.682;8.890;2024-03-06T10:58:00;6.00;99.90
26224;DHT22;14820;48.682;8.890;2024-03-06T11:00:26;6.00;99.90
26224;DHT22;14820;48.682;8.890;2024-03-06T11:02:55;6.00;99.90
26224;DHT22;14820;48.682;8.890;2024-03-06T11:05:21;6.00;99.90
26224;DHT22;14820;48.682;8.890;2024-03-06T11:07:46;6.00;99.90
26224;DHT22;14820;48.682;8.890;2024-03-06T11:10:12;6.10;99.90
26224;DHT22;14820;48.682;8.890;2024-03-06T11:12:42;6.10;99.90
26224;DHT22;14820;48.682;8.890;2024-03-06T11:15:14;6.10;99.90
26224;DHT22;14820;48.682;8.890;2024-03-06T11:17:41;6.10;99.90
26224;DHT22;14820;48.682;8.890;2024-03-06T11:20:17;6.10;99.90
26224;DHT22;14820;48.682;8.890;2024-03-06T11:31:03;6.10;99.90
26224;DHT22;14820;48.682;8.890;2024-03-06T11:33:37;6.10;99.90
26224;DHT22;14820;48.682;8.890;2024-03-06T11:36:28;6.10;99.90
26224;DHT22;14820;48.682;8.890;2024-03-06T11:39:07;6.10;99.90
26224;DHT22;14820;48.682;8.890;2024-03-06T11:41:48;6.20;99.90
26224;DHT22;14820;48.682;8.890;2024-03-06T11:44:19;6.10;99.90
26224;DHT22;14820;48.682;8.890;2024-03-06T11:46:50;6.20;99.90
26224;DHT22;14820;48.682;8.890;2024-03-06T11:49:26;6.20;99.90
26224;DHT22;14820;48.682;8.890;2024-03-06T11:51:56;6.20;99.90
26224;DHT22;14820;48.682;8.890;2024-03-06T11:54:23;6.10;99.90
26224;DHT22;14820;48.682;8.890;2024-03-06T11:56:52;6.10;99.90
26224;DHT22;14820;48.682;8.890;2024-03-06T11:59:30;6.10;99.90
26224;DHT22;14820;48.682;8.890;2024-03-06T12:01:57;6.10;99.90
26224;DHT22;14820;48.682;8.890;2024-03-06T12:04:24;6.10;99.90
26224;DHT22;14820;48.682;8.890;2024-03-06T12:06:50;6.10;99.90
26224;DHT22;14820;48.682;8.890;2024-03-06T12:09:17;6.10;99.90
26224;DHT22;14820;48.682;8.890;2024-03-06T12:11:43;6.10;99.90
26224;DHT22;14820;48.682;8.890;2024-03-06T12:14:14;6.10;99.90
26224;DHT22;14820;48.682;8.890;2024-03-06T12:16:40;6.10;99.90
26224;DHT22;14820;48.682;8.890;2024-03-06T12:19:06;6.00;99.90
26224;DHT22;14820;48.682;8.890;2024-03-06T12:21:34;6.10;99.90
26224;DHT22;14820;48.682;8.890;2024-03-06T12:24:10;6.10;99.90
26224;DHT22;14820;48.682;8.890;2024-03-06T12:26:36;6.10;99.90
26224;DHT22;14820;48.682;8.890;2024-03-06T12:29:10;6.10;99.90
26224;DHT22;14820;48.682;8.890;2024-03-06T12:31:41;6.10;99.90
26224;DHT22;14820;48.682;8.890;2024-03-06T12:34:07;6.00;99.90
26224;DHT22;14820;48.682;8.890;2024-03-06T12:36:33;6.00;99.90
26224;DHT22;14820;48.682;8.890;2024-03-06T12:39:00;6.00;99.90
26224;DHT22;14820;48.682;8.890;2024-03-06T12:41:27;6.10;99.90
26224;DHT22;14820;48.682;8.890;2024-03-06T12:43:54;6.10;99.90
26224;DHT22;14820;48.682;8.890;2024-03-06T12:46:20;6.10;99.90
26224;DHT22;14820;48.682;8.890;2024-03-06T12:48:46;6.10;99.90
26224;DHT22;14820;48.682;8.890;2024-03-06T12:51:12;6.10;99.90
26224;DHT22;14820;48.682;8.890;2024-03-06T12:53:37;6.10;99.90
26224;DHT22;14820;48.682;8.890;2024-03-06T12:56:03;6.10;99.90
26224;DHT22;14820;48.682;8.890;2024-03-06T12:58:29;6.10;99.90
26224;DHT22;14820;48.682;8.890;2024-03-06T13:01:00;6.10;99.90
26224;DHT22;14820;48.682;8.890;2024-03-06T13:03:27;6.20;99.90
26224;DHT22;14820;48.682;8.890;2024-03-06T13:05:52;6.20;99.90
26224;DHT22;14820;48.682;8.890;2024-03-06T13:08:18;6.20;99.90
26224;DHT22;14820;48.682;8.890;2024-03-06T13:10:44;6.20;99.90
26224;DHT22;14820;48.682;8.890;2024-03-06T13:13:10;6.20;99.90
26224;DHT22;14820;48.682;8.890;2024-03-06T13:15:36;6.20;99.90
26224;DHT22;14820;48.682;8.890;2024-03-06T13:18:05;6.20;99.90
26224;DHT22;14820;48.682;8.890;2024-03-06T13:20:31;6.30;99.90
26224;DHT22;14820;48.682;8.890;2024-03-06T13:22:57;6.30;99.90
26224;DHT22;14820;48.682;8.890;2024-03-06T13:25:22;6.20;99.90
26224;DHT22;14820;48.682;8.890;2024-03-06T13:27:48;6.20;99.90
26224;DHT22;14820;48.682;8.890;2024-03-06T13:30:14;6.20;99.90
26224;DHT22;14820;48.682;8.890;2024-03-06T13:32:41;6.20;99.90
26224;DHT22;14820;48.682;8.890;2024-03-06T13:35:08;6.20;99.90
26224;DHT22;14820;48.682;8.890;2024-03-06T13:37:38;6.10;99.90
26224;DHT22;14820;48.682;8.890;2024-03-06T13:40:05;6.20;99.90
26224;DHT22;14820;48.682;8.890;2024-03-06T13:42:32;6.20;99.90
26224;DHT22;14820;48.682;8.890;2024-03-06T13:44:58;6.20;99.90
26224;DHT22;14820;48.682;8.890;2024-03-06T13:47:24;6.20;99.90
26224;DHT22;14820;48.682;8.890;2024-03-06T13:49:51;6.20;99.90
26224;DHT22;14820;48.682;8.890;2024-03-06T13:52:17;6.30;99.90
26224;DHT22;14820;48.682;8.890;2024-03-06T13:54:46;6.30;99.90
26224;DHT22;14820;48.682;8.890;2024-03-06T13:57:12;6.30;99.90
26224;DHT22;14820;48.682;8.890;2024-03-06T13:59:39;6.30;99.90
26224;DHT22;14820;48.682;8.890;2024-03-06T14:02:06;6.30;99.90
26224;DHT22;14820;48.682;8.890;2024-03-06T14:04:32;6.30;99.90
26224;DHT22;14820;48.682;8.890;2024-03-06T14:06:58;6.30;99.90
26224;DHT22;14820;48.682;8.890;2024-03-06T14:09:24;6.30;99.90
26224;DHT22;14820;48.682;8.890;2024-03-06T14:11:51;6.30;99.90
26224;DHT22;14820;48.682;8.890;2024-03-06T14:14:17;6.30;99.90
26224;DHT22;14820;48.682;8.890;2024-03-06T14:16:43;6.30;99.90
26224;DHT22;14820;48.682;8.890;2024-03-06T14:19:09;6.30;99.90
26224;DHT22;14820;48.682;8.890;2024-03-06T14:21:36;6.30;99.90
26224;DHT22;14820;48.682;8.890;2024-03-06T14:24:02;6.30;99.90
26224;DHT22;14820;48.682;8.890;2024-03-06T14:26:30;6.40;99.90
26224;DHT22;14820;48.682;8.890;2024-03-06T14:28:55;6.30;99.90
26224;DHT22;14820;48.682;8.890;2024-03-06T14:31:22;6.30;99.90
26224;DHT22;14820;48.682;8.890;2024-03-06T14:33:48;6.40;99.90
26224;DHT22;14820;48.682;8.890;2024-03-06T14:36:14;6.40;99.90
26224;DHT22;14820;48.682;8.890;2024-03-06T14:38:40;6.40;99.90
26224;DHT22;14820;48.682;8.890;2024-03-06T14:41:06;6.30;99.90
26224;DHT22;14820;48.682;8.890;2024-03-06T14:43:32;6.30;99.90
26224;DHT22;14820;48.682;8.890;2024-03-06T14:46:00;6.30;99.90
26224;DHT22;14820;48.682;8.890;2024-03-06T14:48:25;6.30;99.90
26224;DHT22;14820;48.682;8.890;2024-03-06T14:50:51;6.30;99.90
26224;DHT22;14820;48.682;8.890;2024-03-06T14:53:17;6.40;99.90
26224;DHT22;14820;48.682;8.890;2024-03-06T14:55:42;6.40;99.90
26224;DHT22;14820;48.682;8.890;2024-03-06T14:58:08;6.30;99.90
26224;DHT22;14820;48.682;8.890;2024-03-06T15:00:34;6.30;99.90
26224;DHT22;14820;48.682;8.890;2024-03-06T15:02:59;6.30;99.90
26224;DHT22;14820;48.682;8.890;2024-03-06T15:05:27;6.30;99.90
26224;DHT22;14820;48.682;8.890;2024-03-06T15:07:53;6.40;99.90
26224;DHT22;14820;48.682;8.890;2024-03-06T15:10:20;6.40;99.90
26224;DHT22;14820;48.682;8.890;2024-03-06T15:12:45;6.30;99.90
26224;DHT22;14820;48.682;8.890;2024-03-06T15:15:11;6.30;99.90
26224;DHT22;14820;48.682;8.890;2024-03-06T15:17:37;6.30;99.90
26224;DHT22;14820;48.682;8.890;2024-03-06T15:20:07;6.40;99.90
26224;DHT22;14820;48.682;8.890;2024-03-06T15:22:35;6.40;99.90
26224;DHT22;14820;48.682;8.890;2024-03-06T15:25:08;6.40;99.90
26224;DHT22;14820;48.682;8.890;2024-03-06T15:27:35;6.40;99.90
26224;DHT22;14820;48.682;8.890;2024-03-06T15:30:02;6.40;99.90
26224;DHT22;14820;48.682;8.890;2024-03-06T15:32:28;6.40;99.90
26224;DHT22;14820;48.682;8.890;2024-03-06T15:34:53;6.40;99.90
26224;DHT22;14820;48.682;8.890;2024-03-06T15:37:22;6.40;99.90
26224;DHT22;14820;48.682;8.890;2024-03-06T15:39:54;6.40;99.90
26224;DHT22;14820;48.682;8.890;2024-03-06T15:42:20;6.40;99.90
26224;DHT22;14820;48.682;8.890;2024-03-06T15:44:47;6.40;99.90
26224;DHT22;14820;48.682;8.890;2024-03-06T15:47:13;6.30;99.90
26224;DHT22;14820;48.682;8.890;2024-03-06T15:49:39;6.30;99.90
26224;DHT22;14820;48.682;8.890;2024-03-06T15:52:04;6.30;99.90